sensor_id;sensor_type;location;lat;lon;timestamp;P1;durP1;ratioP1;P2;durP2;ratioP2
73337;SDS011;61575;49.908;35.556;2022-10-28T00:00:32;6.37;;;3.60;;
73337;SDS011;61575;49.908;35.556;2022-10-28T00:03:37;7.07;;;3.80;;
73337;SDS011;61575;49.908;35.556;2022-10-28T00:06:41;7.28;;;3.88;;
73337;SDS011;61575;49.908;35.556;2022-10-28T00:09:43;6.80;;;3.80;;
73337;SDS011;61575;49.908;35.556;2022-10-28T00:12:45;6.53;;;4.32;;
73337;SDS011;61575;49.908;35.556;2022-10-28T00:15:47;6.80;;;4.00;;
73337;SDS011;61575;49.908;35.556;2022-10-28T00:18:48;7.88;;;4.68;;
73337;SDS011;61575;49.908;35.556;2022-10-28T00:21:53;7.32;;;4.50;;
73337;SDS011;61575;49.908;35.556;2022-10-28T00:24:54;7.73;;;4.50;;
73337;SDS011;61575;49.908;35.556;2022-10-28T00:27:56;7.88;;;4.63;;
73337;SDS011;61575;49.908;35.556;2022-10-28T00:31:02;7.97;;;5.20;;
73337;SDS011;61575;49.908;35.556;2022-10-28T00:34:06;7.55;;;4.97;;
73337;SDS011;61575;49.908;35.556;2022-10-28T00:37:12;10.80;;;5.18;;
73337;SDS011;61575;49.908;35.556;2022-10-28T00:40:14;10.25;;;4.93;;
73337;SDS011;61575;49.908;35.556;2022-10-28T00:43:16;8.73;;;5.57;;
73337;SDS011;61575;49.908;35.556;2022-10-28T00:49:41;8.15;;;5.07;;
73337;SDS011;61575;49.908;35.556;2022-10-28T00:52:47;9.35;;;5.85;;
73337;SDS011;61575;49.908;35.556;2022-10-28T00:55:53;7.82;;;5.13;;
73337;SDS011;61575;49.908;35.556;2022-10-28T00:58:58;9.60;;;5.75;;
73337;SDS011;61575;49.908;35.556;2022-10-28T01:02:03;13.10;;;7.18;;
73337;SDS011;61575;49.908;35.556;2022-10-28T01:05:06;12.68;;;7.00;;
73337;SDS011;61575;49.908;35.556;2022-10-28T01:08:09;12.15;;;7.20;;
73337;SDS011;61575;49.908;35.556;2022-10-28T01:15:03;15.77;;;8.73;;
73337;SDS011;61575;49.908;35.556;2022-10-28T01:35:02;14.05;;;7.50;;
73337;SDS011;61575;49.908;35.556;2022-10-28T01:38:10;15.43;;;7.30;;
73337;SDS011;61575;49.908;35.556;2022-10-28T01:41:27;12.98;;;6.85;;
73337;SDS011;61575;49.908;35.556;2022-10-28T01:44:38;16.00;;;7.45;;
73337;SDS011;61575;49.908;35.556;2022-10-28T01:54:15;12.60;;;7.13;;
73337;SDS011;61575;49.908;35.556;2022-10-28T01:57:20;14.52;;;7.30;;
73337;SDS011;61575;49.908;35.556;2022-10-28T02:00:24;13.68;;;7.15;;
73337;SDS011;61575;49.908;35.556;2022-10-28T02:03:27;15.43;;;7.85;;
73337;SDS011;61575;49.908;35.556;2022-10-28T02:06:29;15.23;;;7.83;;
73337;SDS011;61575;49.908;35.556;2022-10-28T02:09:48;19.55;;;8.85;;
73337;SDS011;61575;49.908;35.556;2022-10-28T02:12:52;14.55;;;7.25;;
73337;SDS011;61575;49.908;35.556;2022-10-28T02:19:16;13.43;;;6.93;;
73337;SDS011;61575;49.908;35.556;2022-10-28T02:25:47;14.00;;;7.70;;
73337;SDS011;61575;49.908;35.556;2022-10-28T02:31:58;12.85;;;8.00;;
73337;SDS011;61575;49.908;35.556;2022-10-28T02:35:06;12.75;;;7.15;;
73337;SDS011;61575;49.908;35.556;2022-10-28T02:38:25;12.98;;;6.95;;
73337;SDS011;61575;49.908;35.556;2022-10-28T02:44:58;31.60;;;14.30;;
73337;SDS011;61575;49.908;35.556;2022-10-28T02:48:13;23.30;;;11.88;;
73337;SDS011;61575;49.908;35.556;2022-10-28T02:51:20;45.72;;;20.92;;
73337;SDS011;61575;49.908;35.556;2022-10-28T02:54:31;54.08;;;24.35;;
73337;SDS011;61575;49.908;35.556;2022-10-28T02:57:36;41.40;;;19.73;;
73337;SDS011;61575;49.908;35.556;2022-10-28T03:00:42;21.73;;;12.55;;
73337;SDS011;61575;49.908;35.556;2022-10-28T03:03:45;16.63;;;8.82;;
73337;SDS011;61575;49.908;35.556;2022-10-28T03:06:47;16.03;;;8.43;;
73337;SDS011;61575;49.908;35.556;2022-10-28T03:09:49;16.85;;;9.38;;
73337;SDS011;61575;49.908;35.556;2022-10-28T03:12:51;17.38;;;8.68;;
73337;SDS011;61575;49.908;35.556;2022-10-28T03:15:53;13.00;;;8.70;;
73337;SDS011;61575;49.908;35.556;2022-10-28T03:18:55;12.97;;;8.03;;
73337;SDS011;61575;49.908;35.556;2022-10-28T03:21:57;12.15;;;7.28;;
73337;SDS011;61575;49.908;35.556;2022-10-28T03:24:59;10.83;;;6.63;;
73337;SDS011;61575;49.908;35.556;2022-10-28T03:28:01;13.17;;;8.13;;
73337;SDS011;61575;49.908;35.556;2022-10-28T03:31:03;16.23;;;9.27;;
73337;SDS011;61575;49.908;35.556;2022-10-28T03:34:06;15.00;;;8.90;;
73337;SDS011;61575;49.908;35.556;2022-10-28T03:37:07;12.10;;;7.80;;
73337;SDS011;61575;49.908;35.556;2022-10-28T03:40:10;13.02;;;6.95;;
73337;SDS011;61575;49.908;35.556;2022-10-28T03:43:13;13.27;;;7.10;;
73337;SDS011;61575;49.908;35.556;2022-10-28T03:46:15;10.18;;;6.53;;
73337;SDS011;61575;49.908;35.556;2022-10-28T03:49:17;11.23;;;7.05;;
73337;SDS011;61575;49.908;35.556;2022-10-28T03:52:19;11.37;;;7.40;;
73337;SDS011;61575;49.908;35.556;2022-10-28T03:55:21;11.93;;;6.73;;
73337;SDS011;61575;49.908;35.556;2022-10-28T03:58:24;9.80;;;6.35;;
73337;SDS011;61575;49.908;35.556;2022-10-28T04:01:26;11.52;;;6.75;;
73337;SDS011;61575;49.908;35.556;2022-10-28T04:04:28;10.98;;;6.32;;
73337;SDS011;61575;49.908;35.556;2022-10-28T04:07:31;9.27;;;5.82;;
73337;SDS011;61575;49.908;35.556;2022-10-28T04:10:33;8.90;;;5.83;;
73337;SDS011;61575;49.908;35.556;2022-10-28T04:13:35;13.23;;;5.88;;
73337;SDS011;61575;49.908;35.556;2022-10-28T04:16:37;15.50;;;6.10;;
73337;SDS011;61575;49.908;35.556;2022-10-28T04:19:39;12.23;;;6.07;;
73337;SDS011;61575;49.908;35.556;2022-10-28T04:22:41;14.40;;;6.37;;
73337;SDS011;61575;49.908;35.556;2022-10-28T04:25:43;20.43;;;8.17;;
73337;SDS011;61575;49.908;35.556;2022-10-28T04:28:45;14.13;;;6.90;;
73337;SDS011;61575;49.908;35.556;2022-10-28T04:31:47;11.10;;;4.78;;
73337;SDS011;61575;49.908;35.556;2022-10-28T04:34:52;9.10;;;4.68;;
73337;SDS011;61575;49.908;35.556;2022-10-28T04:37:54;8.73;;;4.60;;
73337;SDS011;61575;49.908;35.556;2022-10-28T04:40:57;8.23;;;4.20;;
73337;SDS011;61575;49.908;35.556;2022-10-28T04:43:59;9.37;;;4.73;;
73337;SDS011;61575;49.908;35.556;2022-10-28T04:47:00;8.90;;;5.07;;
73337;SDS011;61575;49.908;35.556;2022-10-28T04:50:03;9.63;;;6.03;;
73337;SDS011;61575;49.908;35.556;2022-10-28T04:53:05;10.75;;;5.97;;
73337;SDS011;61575;49.908;35.556;2022-10-28T04:56:07;9.32;;;5.68;;
73337;SDS011;61575;49.908;35.556;2022-10-28T04:59:10;15.68;;;7.50;;
73337;SDS011;61575;49.908;35.556;2022-10-28T05:02:12;19.03;;;9.47;;
73337;SDS011;61575;49.908;35.556;2022-10-28T05:05:14;14.43;;;6.87;;
73337;SDS011;61575;49.908;35.556;2022-10-28T05:08:17;11.13;;;6.20;;
73337;SDS011;61575;49.908;35.556;2022-10-28T05:11:19;10.07;;;6.03;;
73337;SDS011;61575;49.908;35.556;2022-10-28T05:14:21;9.82;;;5.50;;
73337;SDS011;61575;49.908;35.556;2022-10-28T05:17:23;10.77;;;6.20;;
73337;SDS011;61575;49.908;35.556;2022-10-28T05:20:25;9.07;;;5.17;;
73337;SDS011;61575;49.908;35.556;2022-10-28T05:23:26;10.40;;;5.00;;
73337;SDS011;61575;49.908;35.556;2022-10-28T05:26:31;7.82;;;4.75;;
73337;SDS011;61575;49.908;35.556;2022-10-28T05:29:33;8.52;;;4.80;;
73337;SDS011;61575;49.908;35.556;2022-10-28T05:32:35;9.65;;;5.53;;
73337;SDS011;61575;49.908;35.556;2022-10-28T05:35:37;9.17;;;5.70;;
73337;SDS011;61575;49.908;35.556;2022-10-28T05:38:40;10.20;;;5.65;;
73337;SDS011;61575;49.908;35.556;2022-10-28T05:41:45;11.73;;;6.15;;
73337;SDS011;61575;49.908;35.556;2022-10-28T05:44:47;12.10;;;6.68;;
73337;SDS011;61575;49.908;35.556;2022-10-28T05:47:49;12.17;;;6.70;;
73337;SDS011;61575;49.908;35.556;2022-10-28T05:50:51;12.70;;;7.70;;
73337;SDS011;61575;49.908;35.556;2022-10-28T05:53:53;19.87;;;10.23;;
73337;SDS011;61575;49.908;35.556;2022-10-28T05:56:55;11.57;;;6.30;;
73337;SDS011;61575;49.908;35.556;2022-10-28T05:59:57;51.47;;;17.30;;
73337;SDS011;61575;49.908;35.556;2022-10-28T06:03:02;66.20;;;21.43;;
73337;SDS011;61575;49.908;35.556;2022-10-28T06:06:09;35.22;;;14.07;;
73337;SDS011;61575;49.908;35.556;2022-10-28T06:09:11;24.48;;;11.55;;
73337;SDS011;61575;49.908;35.556;2022-10-28T06:12:13;13.57;;;7.30;;
73337;SDS011;61575;49.908;35.556;2022-10-28T06:15:15;10.40;;;5.77;;
73337;SDS011;61575;49.908;35.556;2022-10-28T06:18:17;11.73;;;6.07;;
73337;SDS011;61575;49.908;35.556;2022-10-28T06:21:20;9.90;;;5.72;;
73337;SDS011;61575;49.908;35.556;2022-10-28T06:24:22;10.57;;;5.95;;
73337;SDS011;61575;49.908;35.556;2022-10-28T06:27:24;11.40;;;5.67;;
73337;SDS011;61575;49.908;35.556;2022-10-28T06:30:27;8.60;;;4.77;;
73337;SDS011;61575;49.908;35.556;2022-10-28T06:33:29;9.88;;;4.70;;
73337;SDS011;61575;49.908;35.556;2022-10-28T06:36:31;10.55;;;5.40;;
73337;SDS011;61575;49.908;35.556;2022-10-28T06:39:33;10.85;;;5.13;;
73337;SDS011;61575;49.908;35.556;2022-10-28T06:42:35;9.63;;;5.40;;
73337;SDS011;61575;49.908;35.556;2022-10-28T06:45:37;9.87;;;5.30;;
73337;SDS011;61575;49.908;35.556;2022-10-28T06:48:39;9.93;;;5.40;;
73337;SDS011;61575;49.908;35.556;2022-10-28T06:51:40;7.85;;;4.53;;
73337;SDS011;61575;49.908;35.556;2022-10-28T06:54:42;7.63;;;4.10;;
73337;SDS011;61575;49.908;35.556;2022-10-28T06:57:45;7.07;;;3.87;;
73337;SDS011;61575;49.908;35.556;2022-10-28T07:00:47;7.57;;;3.65;;
73337;SDS011;61575;49.908;35.556;2022-10-28T07:03:49;5.93;;;3.30;;
73337;SDS011;61575;49.908;35.556;2022-10-28T07:06:56;9.35;;;5.90;;
73337;SDS011;61575;49.908;35.556;2022-10-28T07:09:58;6.43;;;3.95;;
73337;SDS011;61575;49.908;35.556;2022-10-28T07:13:00;8.90;;;4.83;;
73337;SDS011;61575;49.908;35.556;2022-10-28T07:16:02;7.10;;;4.60;;
73337;SDS011;61575;49.908;35.556;2022-10-28T07:19:05;6.40;;;3.63;;
73337;SDS011;61575;49.908;35.556;2022-10-28T07:22:07;5.32;;;3.30;;
73337;SDS011;61575;49.908;35.556;2022-10-28T07:25:09;5.90;;;3.20;;
73337;SDS011;61575;49.908;35.556;2022-10-28T07:28:11;4.50;;;2.30;;
73337;SDS011;61575;49.908;35.556;2022-10-28T07:31:13;6.28;;;3.20;;
73337;SDS011;61575;49.908;35.556;2022-10-28T07:34:15;7.55;;;3.15;;
73337;SDS011;61575;49.908;35.556;2022-10-28T07:37:17;6.90;;;3.90;;
73337;SDS011;61575;49.908;35.556;2022-10-28T07:40:20;10.43;;;5.80;;
73337;SDS011;61575;49.908;35.556;2022-10-28T07:46:24;5.28;;;3.00;;
73337;SDS011;61575;49.908;35.556;2022-10-28T07:49:26;12.90;;;6.23;;
73337;SDS011;61575;49.908;35.556;2022-10-28T07:52:28;6.13;;;3.70;;
73337;SDS011;61575;49.908;35.556;2022-10-28T07:55:30;5.95;;;2.80;;
73337;SDS011;61575;49.908;35.556;2022-10-28T07:58:32;6.63;;;3.50;;
73337;SDS011;61575;49.908;35.556;2022-10-28T08:01:34;5.23;;;2.70;;
73337;SDS011;61575;49.908;35.556;2022-10-28T08:04:36;7.97;;;3.85;;
73337;SDS011;61575;49.908;35.556;2022-10-28T08:07:38;7.45;;;4.15;;
73337;SDS011;61575;49.908;35.556;2022-10-28T08:10:40;7.97;;;4.10;;
73337;SDS011;61575;49.908;35.556;2022-10-28T08:13:42;5.50;;;2.83;;
73337;SDS011;61575;49.908;35.556;2022-10-28T08:16:44;5.95;;;2.50;;
73337;SDS011;61575;49.908;35.556;2022-10-28T08:19:46;5.78;;;3.22;;
73337;SDS011;61575;49.908;35.556;2022-10-28T08:22:48;10.40;;;7.03;;
73337;SDS011;61575;49.908;35.556;2022-10-28T08:25:51;6.80;;;4.40;;
73337;SDS011;61575;49.908;35.556;2022-10-28T08:28:53;9.80;;;5.75;;
73337;SDS011;61575;49.908;35.556;2022-10-28T08:31:55;8.97;;;5.20;;
73337;SDS011;61575;49.908;35.556;2022-10-28T08:34:58;6.15;;;4.22;;
73337;SDS011;61575;49.908;35.556;2022-10-28T08:38:00;5.68;;;2.88;;
73337;SDS011;61575;49.908;35.556;2022-10-28T08:44:47;5.20;;;3.38;;
73337;SDS011;61575;49.908;35.556;2022-10-28T08:47:56;5.75;;;3.08;;
73337;SDS011;61575;49.908;35.556;2022-10-28T08:54:35;5.78;;;3.20;;
73337;SDS011;61575;49.908;35.556;2022-10-28T08:57:51;5.90;;;3.42;;
73337;SDS011;61575;49.908;35.556;2022-10-28T09:00:56;5.63;;;3.45;;
73337;SDS011;61575;49.908;35.556;2022-10-28T09:04:04;6.28;;;3.60;;
73337;SDS011;61575;49.908;35.556;2022-10-28T09:07:15;6.72;;;3.78;;
73337;SDS011;61575;49.908;35.556;2022-10-28T09:14:02;6.80;;;4.28;;
73337;SDS011;61575;49.908;35.556;2022-10-28T09:17:17;6.78;;;4.30;;
73337;SDS011;61575;49.908;35.556;2022-10-28T09:23:53;12.75;;;7.97;;
73337;SDS011;61575;49.908;35.556;2022-10-28T09:36:31;6.13;;;3.67;;
73337;SDS011;61575;49.908;35.556;2022-10-28T09:43:35;12.93;;;6.60;;
73337;SDS011;61575;49.908;35.556;2022-10-28T09:46:49;6.65;;;4.05;;
73337;SDS011;61575;49.908;35.556;2022-10-28T09:49:55;7.85;;;4.75;;
73337;SDS011;61575;49.908;35.556;2022-10-28T09:56:04;7.70;;;4.60;;
73337;SDS011;61575;49.908;35.556;2022-10-28T09:59:09;8.73;;;5.72;;
73337;SDS011;61575;49.908;35.556;2022-10-28T10:02:22;9.23;;;5.57;;
73337;SDS011;61575;49.908;35.556;2022-10-28T10:05:27;10.35;;;6.72;;
73337;SDS011;61575;49.908;35.556;2022-10-28T10:08:33;7.95;;;5.00;;
73337;SDS011;61575;49.908;35.556;2022-10-28T10:11:41;8.75;;;5.20;;
73337;SDS011;61575;49.908;35.556;2022-10-28T10:14:46;9.65;;;5.22;;
73337;SDS011;61575;49.908;35.556;2022-10-28T10:17:50;11.32;;;8.73;;
73337;SDS011;61575;49.908;35.556;2022-10-28T10:20:55;8.25;;;5.50;;
73337;SDS011;61575;49.908;35.556;2022-10-28T10:24:01;9.98;;;6.30;;
73337;SDS011;61575;49.908;35.556;2022-10-28T10:30:12;8.60;;;6.07;;
73337;SDS011;61575;49.908;35.556;2022-10-28T10:33:20;7.40;;;4.40;;
73337;SDS011;61575;49.908;35.556;2022-10-28T10:36:25;8.77;;;4.90;;
73337;SDS011;61575;49.908;35.556;2022-10-28T10:39:34;10.30;;;5.75;;
73337;SDS011;61575;49.908;35.556;2022-10-28T10:42:38;10.60;;;6.78;;
73337;SDS011;61575;49.908;35.556;2022-10-28T10:49:22;10.55;;;7.47;;
73337;SDS011;61575;49.908;35.556;2022-10-28T10:52:22;10.33;;;6.43;;
73337;SDS011;61575;49.908;35.556;2022-10-28T10:55:30;10.75;;;6.97;;
73337;SDS011;61575;49.908;35.556;2022-10-28T10:58:48;13.13;;;9.80;;
73337;SDS011;61575;49.908;35.556;2022-10-28T11:01:55;10.30;;;7.07;;
73337;SDS011;61575;49.908;35.556;2022-10-28T11:05:03;9.20;;;6.50;;
73337;SDS011;61575;49.908;35.556;2022-10-28T11:08:10;15.00;;;9.25;;
73337;SDS011;61575;49.908;35.556;2022-10-28T11:14:38;11.33;;;8.37;;
73337;SDS011;61575;49.908;35.556;2022-10-28T11:21:04;12.48;;;8.57;;
73337;SDS011;61575;49.908;35.556;2022-10-28T11:24:38;14.05;;;9.18;;
73337;SDS011;61575;49.908;35.556;2022-10-28T11:27:57;13.55;;;9.07;;
73337;SDS011;61575;49.908;35.556;2022-10-28T11:31:26;11.50;;;7.95;;
73337;SDS011;61575;49.908;35.556;2022-10-28T11:42:21;10.75;;;6.97;;
73337;SDS011;61575;49.908;35.556;2022-10-28T11:56:02;21.27;;;13.68;;
73337;SDS011;61575;49.908;35.556;2022-10-28T12:09:13;13.68;;;8.63;;
73337;SDS011;61575;49.908;35.556;2022-10-28T12:18:50;18.85;;;9.65;;
73337;SDS011;61575;49.908;35.556;2022-10-28T12:22:05;15.07;;;9.60;;
73337;SDS011;61575;49.908;35.556;2022-10-28T12:25:19;12.63;;;8.02;;
73337;SDS011;61575;49.908;35.556;2022-10-28T12:28:29;16.67;;;9.98;;
73337;SDS011;61575;49.908;35.556;2022-10-28T12:31:41;31.45;;;17.58;;
73337;SDS011;61575;49.908;35.556;2022-10-28T12:34:56;17.40;;;10.35;;
73337;SDS011;61575;49.908;35.556;2022-10-28T12:38:10;37.15;;;19.23;;
73337;SDS011;61575;49.908;35.556;2022-10-28T12:44:53;18.38;;;11.30;;
73337;SDS011;61575;49.908;35.556;2022-10-28T12:48:03;64.40;;;38.42;;
73337;SDS011;61575;49.908;35.556;2022-10-28T12:51:20;45.70;;;25.52;;
73337;SDS011;61575;49.908;35.556;2022-10-28T12:54:31;34.60;;;20.83;;
73337;SDS011;61575;49.908;35.556;2022-10-28T12:57:39;113.13;;;50.03;;
73337;SDS011;61575;49.908;35.556;2022-10-28T13:00:46;73.45;;;33.47;;
73337;SDS011;61575;49.908;35.556;2022-10-28T13:03:54;62.85;;;31.45;;
73337;SDS011;61575;49.908;35.556;2022-10-28T13:07:01;48.38;;;25.38;;
73337;SDS011;61575;49.908;35.556;2022-10-28T13:27:38;10.98;;;6.20;;
73337;SDS011;61575;49.908;35.556;2022-10-28T13:30:54;15.32;;;9.88;;
73337;SDS011;61575;49.908;35.556;2022-10-28T13:33:58;14.85;;;9.00;;
73337;SDS011;61575;49.908;35.556;2022-10-28T13:37:01;20.67;;;10.90;;
73337;SDS011;61575;49.908;35.556;2022-10-28T13:40:05;27.45;;;16.25;;
73337;SDS011;61575;49.908;35.556;2022-10-28T13:47:00;13.63;;;6.82;;
73337;SDS011;61575;49.908;35.556;2022-10-28T13:56:31;46.50;;;35.83;;
73337;SDS011;61575;49.908;35.556;2022-10-28T13:59:47;16.27;;;11.55;;
73337;SDS011;61575;49.908;35.556;2022-10-28T14:02:54;17.30;;;10.38;;
73337;SDS011;61575;49.908;35.556;2022-10-28T14:05:59;15.13;;;9.18;;
73337;SDS011;61575;49.908;35.556;2022-10-28T14:09:01;16.17;;;9.02;;
73337;SDS011;61575;49.908;35.556;2022-10-28T14:15:24;15.45;;;8.75;;
73337;SDS011;61575;49.908;35.556;2022-10-28T14:18:26;75.15;;;44.13;;
73337;SDS011;61575;49.908;35.556;2022-10-28T14:24:48;46.83;;;26.63;;
73337;SDS011;61575;49.908;35.556;2022-10-28T14:27:50;25.83;;;15.25;;
73337;SDS011;61575;49.908;35.556;2022-10-28T14:37:21;25.90;;;15.48;;
73337;SDS011;61575;49.908;35.556;2022-10-28T14:44:22;25.40;;;14.73;;
73337;SDS011;61575;49.908;35.556;2022-10-28T14:47:55;24.63;;;14.27;;
73337;SDS011;61575;49.908;35.556;2022-10-28T14:51:11;25.55;;;14.23;;
73337;SDS011;61575;49.908;35.556;2022-10-28T14:54:17;21.15;;;11.77;;
73337;SDS011;61575;49.908;35.556;2022-10-28T14:57:41;18.67;;;11.18;;
73337;SDS011;61575;49.908;35.556;2022-10-28T15:00:45;19.57;;;12.63;;
73337;SDS011;61575;49.908;35.556;2022-10-28T15:04:00;25.02;;;12.80;;
73337;SDS011;61575;49.908;35.556;2022-10-28T15:07:03;20.23;;;13.45;;
73337;SDS011;61575;49.908;35.556;2022-10-28T15:10:12;20.42;;;12.40;;
73337;SDS011;61575;49.908;35.556;2022-10-28T15:13:28;20.75;;;12.77;;
73337;SDS011;61575;49.908;35.556;2022-10-28T15:16:31;15.67;;;10.80;;
73337;SDS011;61575;49.908;35.556;2022-10-28T15:19:34;17.13;;;9.95;;
73337;SDS011;61575;49.908;35.556;2022-10-28T15:22:36;20.33;;;11.10;;
73337;SDS011;61575;49.908;35.556;2022-10-28T15:25:38;17.30;;;12.00;;
73337;SDS011;61575;49.908;35.556;2022-10-28T15:28:40;15.53;;;11.13;;
73337;SDS011;61575;49.908;35.556;2022-10-28T15:47:38;21.27;;;7.50;;
73337;SDS011;61575;49.908;35.556;2022-10-28T15:50:40;13.77;;;7.43;;
73337;SDS011;61575;49.908;35.556;2022-10-28T15:53:45;16.45;;;8.00;;
73337;SDS011;61575;49.908;35.556;2022-10-28T15:56:57;18.60;;;11.97;;
73337;SDS011;61575;49.908;35.556;2022-10-28T16:03:44;22.25;;;14.88;;
73337;SDS011;61575;49.908;35.556;2022-10-28T16:06:53;24.27;;;15.30;;
73337;SDS011;61575;49.908;35.556;2022-10-28T16:09:57;23.23;;;15.90;;
73337;SDS011;61575;49.908;35.556;2022-10-28T16:12:59;22.90;;;14.33;;
73337;SDS011;61575;49.908;35.556;2022-10-28T16:16:03;23.70;;;15.55;;
73337;SDS011;61575;49.908;35.556;2022-10-28T16:19:08;30.42;;;18.15;;
73337;SDS011;61575;49.908;35.556;2022-10-28T16:22:28;52.65;;;26.13;;
73337;SDS011;61575;49.908;35.556;2022-10-28T16:25:31;62.67;;;33.38;;
73337;SDS011;61575;49.908;35.556;2022-10-28T16:28:33;53.05;;;31.25;;
73337;SDS011;61575;49.908;35.556;2022-10-28T16:31:35;49.30;;;28.48;;
73337;SDS011;61575;49.908;35.556;2022-10-28T16:34:37;45.33;;;27.27;;
73337;SDS011;61575;49.908;35.556;2022-10-28T16:37:39;48.88;;;26.23;;
73337;SDS011;61575;49.908;35.556;2022-10-28T16:40:46;48.95;;;27.27;;
73337;SDS011;61575;49.908;35.556;2022-10-28T16:43:52;46.90;;;27.77;;
73337;SDS011;61575;49.908;35.556;2022-10-28T16:46:56;54.03;;;32.63;;
73337;SDS011;61575;49.908;35.556;2022-10-28T16:49:58;73.53;;;42.35;;
73337;SDS011;61575;49.908;35.556;2022-10-28T16:53:00;74.47;;;43.97;;
73337;SDS011;61575;49.908;35.556;2022-10-28T16:56:02;64.43;;;41.67;;
73337;SDS011;61575;49.908;35.556;2022-10-28T16:59:10;60.95;;;37.05;;
73337;SDS011;61575;49.908;35.556;2022-10-28T17:02:19;54.17;;;33.60;;
73337;SDS011;61575;49.908;35.556;2022-10-28T17:05:26;53.03;;;35.50;;
73337;SDS011;61575;49.908;35.556;2022-10-28T17:08:31;49.83;;;31.80;;
73337;SDS011;61575;49.908;35.556;2022-10-28T17:11:53;41.58;;;27.73;;
73337;SDS011;61575;49.908;35.556;2022-10-28T17:14:55;40.92;;;26.13;;
73337;SDS011;61575;49.908;35.556;2022-10-28T17:17:57;31.53;;;20.63;;
73337;SDS011;61575;49.908;35.556;2022-10-28T17:20:59;27.67;;;16.57;;
73337;SDS011;61575;49.908;35.556;2022-10-28T17:24:03;25.15;;;15.70;;
73337;SDS011;61575;49.908;35.556;2022-10-28T17:27:06;25.20;;;15.13;;
73337;SDS011;61575;49.908;35.556;2022-10-28T17:30:08;21.52;;;13.98;;
73337;SDS011;61575;49.908;35.556;2022-10-28T17:36:13;17.13;;;10.48;;
73337;SDS011;61575;49.908;35.556;2022-10-28T17:39:16;17.25;;;10.73;;
73337;SDS011;61575;49.908;35.556;2022-10-28T17:42:25;15.18;;;9.82;;
73337;SDS011;61575;49.908;35.556;2022-10-28T17:45:27;16.80;;;9.33;;
73337;SDS011;61575;49.908;35.556;2022-10-28T17:48:28;15.27;;;9.50;;
73337;SDS011;61575;49.908;35.556;2022-10-28T17:51:30;15.80;;;10.27;;
73337;SDS011;61575;49.908;35.556;2022-10-28T17:54:33;16.77;;;10.00;;
73337;SDS011;61575;49.908;35.556;2022-10-28T17:57:34;11.43;;;7.80;;
73337;SDS011;61575;49.908;35.556;2022-10-28T18:00:36;13.23;;;8.20;;
73337;SDS011;61575;49.908;35.556;2022-10-28T18:03:38;11.73;;;8.40;;
73337;SDS011;61575;49.908;35.556;2022-10-28T18:06:40;13.47;;;7.93;;
73337;SDS011;61575;49.908;35.556;2022-10-28T18:09:42;15.57;;;9.20;;
73337;SDS011;61575;49.908;35.556;2022-10-28T18:12:48;16.40;;;12.02;;
73337;SDS011;61575;49.908;35.556;2022-10-28T18:15:52;23.95;;;16.73;;
73337;SDS011;61575;49.908;35.556;2022-10-28T18:18:54;21.67;;;14.60;;
73337;SDS011;61575;49.908;35.556;2022-10-28T18:21:56;18.77;;;13.48;;
73337;SDS011;61575;49.908;35.556;2022-10-28T18:24:58;18.37;;;13.77;;
73337;SDS011;61575;49.908;35.556;2022-10-28T18:28:03;17.67;;;13.00;;
73337;SDS011;61575;49.908;35.556;2022-10-28T18:31:06;18.85;;;14.00;;
73337;SDS011;61575;49.908;35.556;2022-10-28T18:34:15;20.45;;;15.57;;
73337;SDS011;61575;49.908;35.556;2022-10-28T18:37:18;17.05;;;11.20;;
73337;SDS011;61575;49.908;35.556;2022-10-28T18:40:20;15.88;;;10.63;;
73337;SDS011;61575;49.908;35.556;2022-10-28T18:43:22;14.43;;;10.10;;
73337;SDS011;61575;49.908;35.556;2022-10-28T18:46:24;11.43;;;7.30;;
73337;SDS011;61575;49.908;35.556;2022-10-28T18:49:26;10.75;;;7.30;;
73337;SDS011;61575;49.908;35.556;2022-10-28T18:52:28;12.18;;;7.53;;
73337;SDS011;61575;49.908;35.556;2022-10-28T18:55:31;11.25;;;6.65;;
73337;SDS011;61575;49.908;35.556;2022-10-28T18:58:33;8.77;;;5.90;;
73337;SDS011;61575;49.908;35.556;2022-10-28T19:01:35;9.88;;;5.70;;
73337;SDS011;61575;49.908;35.556;2022-10-28T19:04:38;9.25;;;6.05;;
73337;SDS011;61575;49.908;35.556;2022-10-28T19:07:40;9.45;;;5.32;;
73337;SDS011;61575;49.908;35.556;2022-10-28T19:10:42;8.40;;;5.13;;
73337;SDS011;61575;49.908;35.556;2022-10-28T19:13:44;11.30;;;5.93;;
73337;SDS011;61575;49.908;35.556;2022-10-28T19:16:46;9.25;;;5.35;;
73337;SDS011;61575;49.908;35.556;2022-10-28T19:19:48;9.37;;;5.13;;
73337;SDS011;61575;49.908;35.556;2022-10-28T19:22:52;10.93;;;5.70;;
73337;SDS011;61575;49.908;35.556;2022-10-28T19:26:06;8.07;;;5.18;;
73337;SDS011;61575;49.908;35.556;2022-10-28T19:29:08;8.10;;;5.18;;
73337;SDS011;61575;49.908;35.556;2022-10-28T19:32:10;9.30;;;5.15;;
73337;SDS011;61575;49.908;35.556;2022-10-28T19:35:12;8.75;;;5.97;;
73337;SDS011;61575;49.908;35.556;2022-10-28T19:38:14;9.73;;;6.33;;
73337;SDS011;61575;49.908;35.556;2022-10-28T19:41:17;9.73;;;5.53;;
73337;SDS011;61575;49.908;35.556;2022-10-28T19:44:20;8.70;;;5.82;;
73337;SDS011;61575;49.908;35.556;2022-10-28T19:47:23;9.13;;;5.70;;
73337;SDS011;61575;49.908;35.556;2022-10-28T19:50:24;7.57;;;4.40;;
73337;SDS011;61575;49.908;35.556;2022-10-28T19:53:26;9.40;;;4.85;;
73337;SDS011;61575;49.908;35.556;2022-10-28T19:56:29;7.50;;;4.20;;
73337;SDS011;61575;49.908;35.556;2022-10-28T19:59:32;7.70;;;4.53;;
73337;SDS011;61575;49.908;35.556;2022-10-28T20:02:35;7.43;;;4.38;;
73337;SDS011;61575;49.908;35.556;2022-10-28T20:05:37;7.93;;;4.53;;
73337;SDS011;61575;49.908;35.556;2022-10-28T20:08:39;7.57;;;4.60;;
73337;SDS011;61575;49.908;35.556;2022-10-28T20:11:44;8.40;;;4.47;;
73337;SDS011;61575;49.908;35.556;2022-10-28T20:14:46;7.53;;;4.10;;
73337;SDS011;61575;49.908;35.556;2022-10-28T20:17:48;8.63;;;4.30;;
73337;SDS011;61575;49.908;35.556;2022-10-28T20:23:54;8.05;;;4.18;;
73337;SDS011;61575;49.908;35.556;2022-10-28T20:26:57;7.80;;;4.38;;
73337;SDS011;61575;49.908;35.556;2022-10-28T20:29:59;7.95;;;4.60;;
73337;SDS011;61575;49.908;35.556;2022-10-28T20:33:01;9.03;;;4.90;;
73337;SDS011;61575;49.908;35.556;2022-10-28T20:36:03;8.60;;;4.17;;
73337;SDS011;61575;49.908;35.556;2022-10-28T20:39:08;10.63;;;4.53;;
73337;SDS011;61575;49.908;35.556;2022-10-28T20:42:15;7.85;;;4.50;;
73337;SDS011;61575;49.908;35.556;2022-10-28T20:45:17;7.30;;;4.25;;
73337;SDS011;61575;49.908;35.556;2022-10-28T20:48:19;6.97;;;4.40;;
73337;SDS011;61575;49.908;35.556;2022-10-28T20:54:25;8.57;;;4.15;;
73337;SDS011;61575;49.908;35.556;2022-10-28T20:57:27;12.05;;;4.82;;
73337;SDS011;61575;49.908;35.556;2022-10-28T21:00:28;7.03;;;4.28;;
73337;SDS011;61575;49.908;35.556;2022-10-28T21:03:31;7.67;;;4.47;;
73337;SDS011;61575;49.908;35.556;2022-10-28T21:06:33;7.30;;;4.80;;
73337;SDS011;61575;49.908;35.556;2022-10-28T21:09:36;7.88;;;4.32;;
73337;SDS011;61575;49.908;35.556;2022-10-28T21:12:38;8.33;;;4.07;;
73337;SDS011;61575;49.908;35.556;2022-10-28T21:15:40;7.37;;;4.23;;
73337;SDS011;61575;49.908;35.556;2022-10-28T21:18:44;7.88;;;4.40;;
73337;SDS011;61575;49.908;35.556;2022-10-28T21:21:46;7.22;;;4.72;;
73337;SDS011;61575;49.908;35.556;2022-10-28T21:24:48;8.07;;;4.23;;